Khlong Si Airfield

TH-0002 · Phra Nakhon Si Ayutthaya, 泰国

使用的METAR站距离机场30 km。
罗盘
风向 的 风向 的 风向 到 风向 240° Khlong Si Airfield 18/36
风: 6 kt, 2 beaufort

3 kt

5 kt
改变
0 ft 1.000 2.000 3.000 4.000 5.000
Cloud Cloud
FEW 2.000
METAR VTBD 211030Z 24006KT 180V280 9999 FEW020 39/17 Q1003 NOSIG

METAR Khlong Si Airfield - TH-0002

Khlong Si Airfield是,泰国中的小机场。 该机场位于纬度14,16953和经度100,69168。 该机场有一条跑道: 18/36. 这个机场没有ICAO代码,我们使用TH-0002作为参考。 机场在Bangkok FIR中。

该航空气象观测是针对曼谷國際機場在2024年4月21日 17:30, 当地时间进行的。

机场观察

风向为240°,速度为6 kt。 风向在180°和280°之间变化。

可见度为10 km 或者更多。

有几云在2.000 ft的高度。 没有观察到天花板。

温度和风寒是39 °C。 露点为17 °C,相对湿度为27%。 海平面上的气压为1003 hPa (QNH)。

白天

今天,太阳从05:59升起,在18:31降落。 这适用于Khlong Si Airfield,世界夏令时可能有所不同。 当地时间与世界标准时间之间的时差为+7 小时。 夏令时目前正在进行中。

公司介绍

我们没有关于这个机场的公司信息。

体会

到Vliegles.nl去找飞行课程,跳伞和其他飞行体验。 浏览页面,了解Khlong Si Airfield附近所有可用的活动。 你也可以使用搜索功能来寻找你所在地附近的特定飞行课程、跳伞或其他飞行体验。

跑道

Id 标题 侧风 逆风 侧风 %
18/36 179°-359° 5 kt 3 kt 87 %

逆风成分最大的方向会被突出显示,并用于横风计算。 这并不一定意味着这个方向在使用。

乌云

2.000 ft FEW 几云

温度 & 天气

温度 39 °C
露点 17 °C
相对湿度 27%
Kp-index 3 (0-9)

白天

日出
06:00
中午
12:16
日落
18:31 (37m)

小工具

你想在你的网站上有一个关于Khlong Si Airfield的当前航空天气(METAR)的小部件吗?

显示HTML代码
报告变更